Time;durP1;ratioP1;P1;durP2;ratioP2;P2;SDS_P1;SDS_P2;PMS_P1;PMS_P2;Temp;Humidity;BMP_temperature;BMP_pressure;BME280_temperature;BME280_humidity;BME280_pressure;Samples;Min_cycle;Max_cycle;Signal;HPM_P1;HPM_P2
2023/07/23 00:01:10;;;;;;;7.63;3.30;;;;;;;22.85;39.73;97207.88;5014343;28;20649;-70
2023/07/23 00:03:36;;;;;;;3.90;3.20;;;;;;;22.78;39.90;97207.19;5008600;28;20189;-72
2023/07/23 00:06:01;;;;;;;6.77;3.27;;;;;;;22.68;40.12;97218.44;5009028;28;20181;-71
2023/07/23 00:08:26;;;;;;;4.37;3.00;;;;;;;22.66;40.26;97214.38;5007863;28;20304;-72
2023/07/23 00:10:57;;;;;;;3.37;3.07;;;;;;;22.63;40.47;97201.47;5009111;28;20192;-72
2023/07/23 00:13:22;;;;;;;4.23;3.50;;;;;;;22.68;40.44;97212.28;5008335;28;20185;-72
2023/07/23 00:15:48;;;;;;;3.30;3.00;;;;;;;22.72;40.49;97204.63;5008956;28;20419;-72
2023/07/23 00:18:13;;;;;;;4.53;3.10;;;;;;;22.71;40.31;97206.47;5008955;28;20287;-70
2023/07/23 00:20:39;;;;;;;3.20;2.80;;;;;;;22.70;40.57;97202.16;5011590;28;20266;-71
2023/07/23 00:23:04;;;;;;;3.13;2.80;;;;;;;22.72;40.27;97208.09;5011104;28;20664;-72
2023/07/23 00:25:29;;;;;;;3.10;2.80;;;;;;;22.73;40.07;97207.03;5008780;28;20203;-71
2023/07/23 00:27:55;;;;;;;4.37;2.73;;;;;;;22.74;40.39;97203.34;5008566;28;20239;-72
2023/07/23 00:30:20;;;;;;;8.87;3.03;;;;;;;22.75;40.24;97196.94;5010283;28;20677;-72
2023/07/23 00:32:46;;;;;;;5.17;3.10;;;;;;;22.75;40.13;97202.28;5008577;28;20668;-71
2023/07/23 00:35:11;;;;;;;2.80;2.50;;;;;;;22.74;39.99;97198.00;5008313;28;20294;-72
2023/07/23 00:37:37;;;;;;;3.23;2.43;;;;;;;22.72;39.87;97197.41;5007947;28;20235;-70
2023/07/23 00:40:03;;;;;;;3.67;2.47;;;;;;;22.73;39.99;97196.38;5009975;28;20266;-71
2023/07/23 00:42:29;;;;;;;3.07;2.27;;;;;;;22.72;39.67;97202.75;5008710;28;20202;-71
2023/07/23 00:44:54;;;;;;;2.47;2.27;;;;;;;22.74;39.70;97205.22;5008183;28;20900;-72
2023/07/23 00:47:20;;;;;;;3.30;2.50;;;;;;;22.74;39.73;97206.00;5008028;28;20196;-73
2023/07/23 00:49:46;;;;;;;2.90;2.57;;;;;;;22.75;39.72;97193.44;5010255;28;20204;-72
2023/07/23 00:52:11;;;;;;;2.97;2.67;;;;;;;22.74;39.68;97192.66;5006877;28;20819;-70
2023/07/23 00:54:37;;;;;;;6.50;2.60;;;;;;;22.69;39.77;97192.53;5011499;28;20240;-70
2023/07/23 00:57:03;;;;;;;3.60;3.00;;;;;;;22.69;39.68;97192.53;5008175;28;20208;-71
2023/07/23 00:59:30;;;;;;;2.70;2.50;;;;;;;22.67;39.69;97186.63;5006877;28;20189;-72
2023/07/23 01:01:56;;;;;;;4.20;2.50;;;;;;;22.67;39.85;97189.28;5010044;28;20427;-72
2023/07/23 01:04:22;;;;;;;2.97;2.30;;;;;;;22.64;39.69;97184.41;5007675;28;20411;-70
2023/07/23 01:06:48;;;;;;;2.90;2.43;;;;;;;22.65;39.84;97181.50;5010623;28;20454;-72
2023/07/23 01:09:14;;;;;;;4.17;2.90;;;;;;;22.63;39.63;97182.78;5009350;28;20211;-71
2023/07/23 01:11:39;;;;;;;3.20;2.50;;;;;;;22.63;39.80;97183.56;5009266;28;20173;-71
2023/07/23 01:14:06;;;;;;;4.30;2.47;;;;;;;22.62;39.66;97181.16;5007770;28;20423;-72
2023/07/23 01:16:31;;;;;;;3.83;2.70;;;;;;;22.59;39.70;97181.59;5008379;28;20204;-71
2023/07/23 01:18:58;;;;;;;8.90;2.77;;;;;;;22.59;39.56;97177.09;5011834;28;20488;-72
2023/07/23 01:21:23;;;;;;;4.53;2.60;;;;;;;22.59;39.58;97177.09;5007320;28;20195;-72
2023/07/23 01:23:49;;;;;;;4.17;2.90;;;;;;;22.55;39.81;97176.75;5015509;28;20940;-71
2023/07/23 01:26:16;;;;;;;2.97;2.67;;;;;;;22.49;39.75;97176.84;5000894;28;20200;-70
2023/07/23 01:28:42;;;;;;;3.80;2.60;;;;;;;22.53;39.84;97172.66;5011260;28;20216;-73
2023/07/23 01:31:09;;;;;;;12.20;2.70;;;;;;;22.49;39.66;97158.16;5016757;28;20618;-70
2023/07/23 01:33:34;;;;;;;2.27;2.07;;;;;;;22.49;39.78;97164.28;5007158;28;20189;-71
2023/07/23 01:36:01;;;;;;;2.60;2.40;;;;;;;22.45;39.78;97171.13;4995649;28;20446;-71
2023/07/23 01:38:26;;;;;;;3.43;2.70;;;;;;;22.45;39.82;97155.09;5010070;28;20203;-71
2023/07/23 01:40:55;;;;;;;3.63;2.50;;;;;;;22.45;40.03;97162.31;5013927;28;20928;-71
2023/07/23 01:43:21;;;;;;;4.67;2.70;;;;;;;22.40;39.80;97155.78;5016985;28;20215;-71
2023/07/23 01:45:47;;;;;;;4.40;2.80;;;;;;;22.41;39.76;97156.63;5008069;28;20485;-72
2023/07/23 01:48:13;;;;;;;3.07;2.77;;;;;;;22.42;39.90;97162.78;5014925;28;21090;-72
2023/07/23 01:50:39;;;;;;;3.00;2.70;;;;;;;22.40;40.14;97153.09;5013105;28;20181;-71
2023/07/23 01:53:05;;;;;;;3.97;2.40;;;;;;;22.37;39.94;97158.09;5014784;28;20192;-71
2023/07/23 01:55:30;;;;;;;2.40;2.20;;;;;;;22.33;39.98;97159.59;5014349;28;20510;-70
2023/07/23 01:57:56;;;;;;;3.37;2.80;;;;;;;22.32;40.33;97152.63;5013961;28;20204;-70
2023/07/23 02:00:21;;;;;;;3.00;2.80;;;;;;;22.28;40.40;97149.59;5011619;28;20279;-72
2023/07/23 02:02:47;;;;;;;2.53;2.33;;;;;;;22.29;40.49;97145.09;5014128;28;20192;-71
2023/07/23 02:05:13;;;;;;;6.90;3.10;;;;;;;22.28;40.43;97154.13;5018364;28;20558;-71
2023/07/23 02:07:39;;;;;;;3.57;2.83;;;;;;;22.27;40.38;97149.84;5010877;28;20204;-70
2023/07/23 02:10:05;;;;;;;4.37;3.00;;;;;;;22.22;40.60;97143.31;5010783;28;21006;-71
2023/07/23 02:12:30;;;;;;;3.10;2.90;;;;;;;22.18;40.69;97144.81;5012847;28;20188;-71
2023/07/23 02:14:55;;;;;;;3.70;2.80;;;;;;;22.20;40.95;97142.72;5018190;28;20427;-71
2023/07/23 02:17:21;;;;;;;3.40;2.77;;;;;;;22.17;40.52;97148.53;5011377;28;20927;-71
2023/07/23 02:19:46;;;;;;;3.00;2.70;;;;;;;22.16;40.65;97144.25;5013324;28;20187;-70
2023/07/23 02:22:12;;;;;;;3.30;3.00;;;;;;;22.17;40.42;97143.22;5012881;28;20250;-73
2023/07/23 02:24:37;;;;;;;3.50;2.40;;;;;;;22.18;40.41;97144.81;5014631;28;20238;-70
2023/07/23 02:27:03;;;;;;;2.90;2.60;;;;;;;22.21;40.31;97138.22;5010948;28;20228;-72
2023/07/23 02:29:29;;;;;;;5.27;2.67;;;;;;;22.20;40.26;97145.41;5011208;28;20219;-72
2023/07/23 02:31:54;;;;;;;3.00;2.70;;;;;;;22.20;40.17;97150.72;5035070;28;20673;-71
2023/07/23 02:34:20;;;;;;;3.50;2.57;;;;;;;22.18;40.21;97150.16;5010886;28;20184;-70
2023/07/23 02:36:46;;;;;;;4.20;3.10;;;;;;;22.14;40.42;97149.00;5009392;28;20837;-71
2023/07/23 02:39:12;;;;;;;3.10;2.77;;;;;;;22.15;40.59;97158.63;5009403;28;20189;-71
2023/07/23 02:41:37;;;;;;;3.13;2.57;;;;;;;22.16;40.64;97162.09;5010292;28;20188;-72
2023/07/23 02:44:03;;;;;;;2.97;2.60;;;;;;;22.13;40.37;97151.88;5018627;28;20291;-70
2023/07/23 02:46:29;;;;;;;3.03;2.40;;;;;;;22.09;40.42;97167.53;5009598;28;20697;-72
2023/07/23 02:48:54;;;;;;;3.03;2.67;;;;;;;22.08;40.75;97165.91;5009480;28;20334;-71
2023/07/23 02:51:20;;;;;;;2.67;2.40;;;;;;;22.04;40.59;97162.09;5008238;28;20518;-72
2023/07/23 02:53:45;;;;;;;3.00;2.70;;;;;;;21.98;40.78;97166.47;5015465;28;20181;-72
2023/07/23 02:56:11;;;;;;;2.80;2.47;;;;;;;21.98;40.67;97161.13;5013847;28;20202;-72
2023/07/23 02:58:36;;;;;;;3.10;2.80;;;;;;;21.99;40.79;97162.72;5010811;28;20224;-71
2023/07/23 03:01:02;;;;;;;4.60;2.60;;;;;;;21.97;40.57;97170.19;5009676;28;20705;-71
2023/07/23 03:03:28;;;;;;;3.20;2.80;;;;;;;21.88;40.86;97161.66;5015955;28;20216;-72
2023/07/23 03:05:53;;;;;;;3.17;2.70;;;;;;;21.89;40.85;97175.81;4992712;28;20442;-72
2023/07/23 03:08:19;;;;;;;2.87;2.67;;;;;;;21.84;41.04;97168.47;5015838;28;20223;-72
2023/07/23 03:10:44;;;;;;;3.83;2.50;;;;;;;21.86;40.90;97168.28;5010402;28;20176;-70
2023/07/23 03:13:10;;;;;;;2.70;2.50;;;;;;;21.86;41.06;97173.63;5008127;28;20184;-72
2023/07/23 03:15:35;;;;;;;3.93;3.10;;;;;;;21.85;41.12;97167.44;5009943;28;20238;-71
2023/07/23 03:18:01;;;;;;;2.73;2.50;;;;;;;21.83;41.09;97163.38;5015706;28;20211;-73
2023/07/23 03:20:27;;;;;;;3.37;2.53;;;;;;;21.82;41.06;97162.56;5007399;28;20271;-71
2023/07/23 03:22:52;;;;;;;3.30;2.80;;;;;;;21.79;41.13;97168.38;5007571;28;20839;-72
2023/07/23 03:25:18;;;;;;;2.67;2.47;;;;;;;21.82;41.08;97169.75;5012463;28;20211;-72
2023/07/23 03:27:43;;;;;;;6.10;2.53;;;;;;;21.83;41.21;97168.72;5007981;28;20207;-73
2023/07/23 03:30:09;;;;;;;3.83;2.53;;;;;;;21.84;41.33;97165.03;5013362;28;20270;-71
2023/07/23 03:32:35;;;;;;;6.27;2.70;;;;;;;21.83;41.27;97168.72;5009537;28;20183;-71
2023/07/23 03:35:00;;;;;;;3.50;2.67;;;;;;;21.81;41.47;97171.59;5008478;28;20921;-71
2023/07/23 03:37:26;;;;;;;3.17;2.90;;;;;;;21.82;41.33;97164.44;5010587;28;20204;-71
2023/07/23 03:39:51;;;;;;;3.17;2.87;;;;;;;21.82;41.29;97161.75;5008235;28;20234;-71
2023/07/23 03:42:17;;;;;;;4.13;2.90;;;;;;;21.76;41.43;97166.16;5010576;28;20267;-71
2023/07/23 03:44:42;;;;;;;3.37;2.50;;;;;;;21.81;41.41;97163.59;5006777;28;20203;-71
2023/07/23 03:47:15;;;;;;;4.23;2.90;;;;;;;21.78;42.16;97169.41;5011930;28;20208;-70
2023/07/23 03:49:41;;;;;;;2.77;2.50;;;;;;;21.75;41.82;97161.84;5007055;28;20204;-72
2023/07/23 03:52:07;;;;;;;6.00;2.60;;;;;;;21.75;42.48;97167.19;5008551;28;20436;-71
2023/07/23 03:54:33;;;;;;;3.67;2.57;;;;;;;21.63;43.68;97172.44;5008639;28;20649;-72
2023/07/23 03:56:58;;;;;;;3.67;3.07;;;;;;;21.60;43.80;97164.91;5015363;28;20318;-71
2023/07/23 03:59:37;;;;;;;4.57;2.63;;;;;;;21.51;44.48;97171.53;5014061;28;20545;-71
2023/07/23 04:02:03;;;;;;;2.97;2.73;;;;;;;21.47;44.76;97173.84;5007182;28;20184;-73
2023/07/23 04:04:29;;;;;;;3.47;3.17;;;;;;;21.40;45.38;97170.44;5003293;28;20447;-72
2023/07/23 04:06:54;;;;;;;6.60;3.00;;;;;;;21.32;45.35;97169.69;5010324;28;20271;-71
2023/07/23 04:09:20;;;;;;;4.37;3.20;;;;;;;21.26;45.69;97170.59;5014218;28;20223;-72
2023/07/23 04:11:45;;;;;;;3.63;2.80;;;;;;;21.15;45.32;97177.47;5007638;28;20240;-73
2023/07/23 04:14:11;;;;;;;3.07;2.77;;;;;;;21.08;46.06;97176.72;5007505;28;20195;-71
2023/07/23 04:16:36;;;;;;;4.80;3.10;;;;;;;21.07;45.97;97177.75;5009969;28;20211;-71
2023/07/23 04:19:02;;;;;;;3.73;3.27;;;;;;;20.98;46.23;97184.41;5007436;28;20270;-72
2023/07/23 04:21:27;;;;;;;3.50;3.20;;;;;;;20.96;46.60;97181.97;5005970;28;20185;-70
2023/07/23 04:23:55;;;;;;;3.70;3.27;;;;;;;20.84;46.57;97183.72;5004546;28;20216;-72
2023/07/23 04:26:21;;;;;;;3.00;2.70;;;;;;;20.87;46.99;97189.41;5013310;28;20228;-71
2023/07/23 04:28:47;;;;;;;5.90;3.10;;;;;;;20.88;47.11;97187.56;5014221;28;20463;-71
2023/07/23 04:31:13;;;;;;;4.40;2.70;;;;;;;20.93;46.76;97185.03;5008555;28;20515;-70
2023/07/23 04:33:39;;;;;;;3.50;3.17;;;;;;;20.89;46.97;97181.22;5007209;28;20510;-71
2023/07/23 04:36:06;;;;;;;2.97;2.73;;;;;;;20.95;47.06;97188.31;5013600;28;20183;-71
2023/07/23 04:38:32;;;;;;;4.33;3.33;;;;;;;20.97;47.07;97185.44;5014980;28;20865;-71
2023/07/23 04:40:57;;;;;;;2.93;2.70;;;;;;;20.96;47.24;97187.28;5008631;28;20420;-70
2023/07/23 04:43:23;;;;;;;3.33;3.00;;;;;;;20.94;47.91;97194.66;5009640;28;20649;-72
2023/07/23 04:45:48;;;;;;;3.20;2.90;;;;;;;20.88;48.38;97190.25;5007269;28;20276;-72
2023/07/23 04:48:16;;;;;;;3.70;3.20;;;;;;;20.89;48.75;97199.03;5011666;28;20231;-71
2023/07/23 04:50:41;;;;;;;4.23;3.60;;;;;;;20.84;48.53;97202.34;5007305;28;20215;-73
2023/07/23 04:53:07;;;;;;;4.57;2.90;;;;;;;20.85;48.57;97191.50;5007121;28;20864;-72
2023/07/23 04:55:32;;;;;;;3.60;3.30;;;;;;;20.90;48.36;97188.19;5012228;28;20571;-72
2023/07/23 04:57:58;;;;;;;3.87;3.10;;;;;;;20.92;48.23;97188.75;5010437;28;20594;-72
2023/07/23 05:00:23;;;;;;;3.03;2.73;;;;;;;20.91;48.61;97195.13;5007037;28;20238;-72
2023/07/23 05:02:49;;;;;;;4.33;2.93;;;;;;;20.96;48.89;97197.13;5006802;28;20267;-71
2023/07/23 05:05:14;;;;;;;4.83;2.90;;;;;;;21.00;48.50;97188.47;5006998;28;20671;-72
2023/07/23 05:07:40;;;;;;;3.87;3.30;;;;;;;21.04;48.77;97188.06;5011067;28;20323;-72
2023/07/23 05:10:06;;;;;;;3.40;3.10;;;;;;;21.07;49.13;97192.91;5012269;28;20306;-73
2023/07/23 05:12:31;;;;;;;3.40;3.10;;;;;;;21.14;49.44;97199.81;5015973;28;20184;-71
2023/07/23 05:15:08;;;;;;;3.73;3.33;;;;;;;21.21;48.89;97188.28;5013365;28;20462;-71
2023/07/23 05:17:34;;;;;;;7.00;3.40;;;;;;;21.24;49.51;97195.81;5011332;28;20204;-70
2023/07/23 05:19:59;;;;;;;3.53;3.23;;;;;;;21.26;49.64;97197.25;5011170;28;21087;-71
2023/07/23 05:22:25;;;;;;;3.10;2.80;;;;;;;21.38;49.27;97191.19;5015129;28;20181;-73
2023/07/23 05:24:50;;;;;;;3.40;2.70;;;;;;;21.45;47.90;97189.25;5014192;28;22005;-71
2023/07/23 05:27:16;;;;;;;5.70;3.27;;;;;;;21.54;47.32;97187.91;5012462;28;20204;-70
2023/07/23 05:29:41;;;;;;;3.20;2.93;;;;;;;21.64;47.66;97187.41;5012438;28;20327;-71
2023/07/23 05:32:07;;;;;;;3.03;2.73;;;;;;;21.73;47.07;97187.91;5013247;28;20298;-72
2023/07/23 05:34:32;;;;;;;3.00;2.70;;;;;;;21.82;46.34;97188.44;5011722;28;20709;-71
2023/07/23 05:36:58;;;;;;;3.07;2.77;;;;;;;21.94;45.42;97187.44;5011177;28;20803;-71
2023/07/23 05:39:23;;;;;;;3.07;2.73;;;;;;;22.07;45.44;97188.28;5014189;28;20181;-71
2023/07/23 05:41:49;;;;;;;3.37;3.00;;;;;;;22.20;45.11;97182.75;5016041;28;20184;-71
2023/07/23 05:44:14;;;;;;;3.47;2.70;;;;;;;22.33;44.59;97179.09;5014159;28;20224;-71
2023/07/23 05:46:40;;;;;;;4.33;2.77;;;;;;;22.48;43.73;97167.19;5011502;28;20184;-72
2023/07/23 05:49:05;;;;;;;2.90;2.43;;;;;;;22.67;43.42;97175.94;5011717;28;20935;-73
2023/07/23 05:51:31;;;;;;;2.90;2.47;;;;;;;22.82;42.92;97186.97;5011507;28;20927;-72
2023/07/23 05:53:56;;;;;;;3.17;2.50;;;;;;;22.95;42.82;97180.59;5016580;28;20821;-73
2023/07/23 05:56:21;;;;;;;5.80;2.60;;;;;;;23.13;42.62;97179.66;5011110;28;20192;-72
2023/07/23 05:58:47;;;;;;;3.67;2.70;;;;;;;23.35;42.35;97183.59;5011246;28;20287;-71
2023/07/23 06:01:12;;;;;;;3.60;2.30;;;;;;;23.53;41.98;97177.28;5022835;28;20708;-73
2023/07/23 06:03:38;;;;;;;4.13;2.40;;;;;;;23.70;41.29;97180.81;5011115;28;20535;-73
2023/07/23 06:06:03;;;;;;;2.60;2.40;;;;;;;23.89;40.57;97177.97;5010639;28;20680;-72
2023/07/23 06:08:29;;;;;;;3.53;2.40;;;;;;;24.09;39.94;97180.25;5014086;28;20641;-72
2023/07/23 06:10:54;;;;;;;3.40;2.27;;;;;;;24.32;39.28;97179.31;5013978;28;20180;-74
2023/07/23 06:13:19;;;;;;;2.70;2.43;;;;;;;24.51;38.86;97174.53;5012290;28;20193;-72
2023/07/23 06:15:45;;;;;;;4.37;2.50;;;;;;;24.76;38.74;97175.22;5010761;28;20673;-72
2023/07/23 06:18:10;;;;;;;5.00;2.50;;;;;;;24.93;38.00;97176.03;5010081;28;20261;-72
2023/07/23 06:20:36;;;;;;;5.40;2.67;;;;;;;25.05;38.04;97172.44;5009943;28;20641;-72
2023/07/23 06:23:01;;;;;;;2.20;2.00;;;;;;;25.14;37.11;97171.72;5012455;28;20275;-73
2023/07/23 06:25:27;;;;;;;3.10;2.60;;;;;;;25.19;36.72;97176.38;5016728;28;20192;-71
2023/07/23 06:27:52;;;;;;;4.80;2.53;;;;;;;25.23;37.10;97180.16;5010442;28;20212;-72
2023/07/23 06:30:18;;;;;;;4.93;2.87;;;;;;;25.26;37.22;97184.25;5012375;28;20217;-72
2023/07/23 06:32:44;;;;;;;2.47;2.27;;;;;;;25.27;37.28;97175.94;5010490;28;20199;-71
2023/07/23 06:35:10;;;;;;;2.60;2.40;;;;;;;25.28;37.21;97185.63;5010025;28;20283;-70
2023/07/23 06:37:38;;;;;;;3.00;2.70;;;;;;;25.30;37.12;97175.47;5010614;28;20447;-71
2023/07/23 06:40:04;;;;;;;2.90;2.60;;;;;;;25.32;36.90;97183.25;5009836;28;20510;-71
2023/07/23 06:42:30;;;;;;;2.63;2.23;;;;;;;25.33;37.16;97181.38;5014854;28;20419;-71
2023/07/23 06:44:55;;;;;;;2.30;2.10;;;;;;;25.39;37.06;97188.44;5009710;28;20462;-71
2023/07/23 06:47:20;;;;;;;3.47;2.50;;;;;;;25.50;36.78;97194.78;5010087;28;20884;-71
2023/07/23 06:49:46;;;;;;;2.70;2.50;;;;;;;25.56;36.23;97178.50;5016515;28;20283;-72
2023/07/23 06:52:11;;;;;;;10.93;2.60;;;;;;;25.63;35.91;97183.66;5012288;28;20279;-71
2023/07/23 06:54:40;;;;;;;2.50;2.30;;;;;;;25.79;35.98;97187.34;5020398;28;20184;-71
2023/07/23 06:57:06;;;;;;;8.30;2.67;;;;;;;25.92;35.27;97176.22;5009139;28;20292;-71
2023/07/23 06:59:32;;;;;;;13.70;2.70;;;;;;;26.04;34.59;97178.72;5013415;28;20431;-72
2023/07/23 07:01:57;;;;;;;3.10;2.80;;;;;;;26.22;34.46;97180.28;5007997;28;20267;-73
2023/07/23 07:04:23;;;;;;;5.03;2.40;;;;;;;26.13;34.06;97170.28;5009631;28;20185;-71
2023/07/23 07:06:48;;;;;;;3.93;2.10;;;;;;;26.43;33.92;97180.47;5009978;28;20197;-70
2023/07/23 07:09:14;;;;;;;2.33;2.13;;;;;;;26.55;34.05;97182.97;5009013;28;20753;-71
2023/07/23 07:11:39;;;;;;;6.23;2.57;;;;;;;26.56;33.59;97178.44;5014325;28;20221;-71
2023/07/23 07:14:05;;;;;;;2.53;2.33;;;;;;;26.73;33.27;97187.16;5008829;28;20184;-70
2023/07/23 07:16:30;;;;;;;2.70;2.50;;;;;;;26.94;32.96;97179.28;5009046;28;20195;-71
2023/07/23 07:18:56;;;;;;;11.43;2.20;;;;;;;27.06;32.83;97184.44;5009216;28;20574;-70
2023/07/23 07:21:21;;;;;;;2.37;2.17;;;;;;;27.02;32.80;97176.09;5009769;28;20267;-71
2023/07/23 07:23:46;;;;;;;2.90;2.70;;;;;;;27.31;32.52;97169.50;5022684;28;20187;-71
2023/07/23 07:26:12;;;;;;;2.33;2.13;;;;;;;27.46;32.66;97169.63;5014515;28;20199;-71
2023/07/23 07:28:37;;;;;;;3.17;2.33;;;;;;;27.68;32.56;97166.75;5009059;28;20731;-71
2023/07/23 07:31:03;;;;;;;3.57;2.63;;;;;;;27.88;32.11;97166.00;5007280;28;20661;-71
2023/07/23 07:33:29;;;;;;;2.33;2.00;;;;;;;27.93;31.53;97154.44;5009048;28;20176;-71
2023/07/23 07:35:58;;;;;;;3.83;2.37;;;;;;;28.02;31.77;97162.78;5010167;28;20653;-71
2023/07/23 07:38:25;;;;;;;3.73;2.57;;;;;;;28.20;31.85;97166.88;5017241;28;20686;-72
2023/07/23 07:40:51;;;;;;;3.00;2.70;;;;;;;28.04;31.88;97163.31;5012296;28;20418;-71
2023/07/23 07:43:16;;;;;;;11.87;2.37;;;;;;;28.33;32.09;97160.16;5011225;28;20416;-71
2023/07/23 07:45:42;;;;;;;2.70;2.00;;;;;;;28.46;31.43;97156.13;5009120;28;20466;-72
2023/07/23 07:48:09;;;;;;;3.87;2.53;;;;;;;28.53;30.85;97164.75;5008752;28;20205;-71
2023/07/23 07:50:34;;;;;;;3.80;2.30;;;;;;;28.16;31.72;97161.22;5009177;28;20180;-72
2023/07/23 07:53:00;;;;;;;2.60;2.40;;;;;;;28.19;31.92;97166.06;5018379;28;20431;-71
2023/07/23 07:55:25;;;;;;;2.57;2.37;;;;;;;28.22;31.64;97174.69;5018543;28;20180;-70
2023/07/23 07:57:51;;;;;;;2.43;2.10;;;;;;;28.13;31.50;97171.72;5009646;28;20228;-70
2023/07/23 08:00:17;;;;;;;2.57;2.27;;;;;;;28.08;31.57;97180.56;5015373;28;20192;-70
2023/07/23 08:02:43;;;;;;;3.20;2.20;;;;;;;28.02;31.38;97174.34;5009045;28;20759;-72
2023/07/23 08:05:09;;;;;;;2.80;2.53;;;;;;;28.05;31.64;97171.16;5008198;28;20561;-71
2023/07/23 08:07:35;;;;;;;6.13;2.53;;;;;;;28.08;31.57;97167.09;5008789;28;20945;-70
2023/07/23 08:10:00;;;;;;;2.60;2.40;;;;;;;28.07;32.25;97170.88;5009946;28;21218;-70
2023/07/23 08:12:26;;;;;;;8.80;2.27;;;;;;;28.13;31.91;97172.53;5008854;28;20431;-71
2023/07/23 08:14:53;;;;;;;3.90;2.10;;;;;;;28.31;31.44;97168.50;5008496;28;20188;-71
2023/07/23 08:17:20;;;;;;;2.53;2.10;;;;;;;28.43;31.86;97159.34;5008400;28;20204;-70
2023/07/23 08:19:45;;;;;;;5.20;2.10;;;;;;;28.44;31.56;97167.16;5008806;28;20420;-72
2023/07/23 08:22:11;;;;;;;3.33;2.60;;;;;;;28.38;31.94;97165.56;5008995;28;20438;-71
2023/07/23 08:24:37;;;;;;;2.50;2.30;;;;;;;28.39;32.16;97169.03;5014017;28;20184;-69
2023/07/23 08:27:03;;;;;;;6.10;5.23;;;;;;;28.42;31.90;97158.53;5013818;28;20308;-72
2023/07/23 08:29:28;;;;;;;11.37;7.10;;;;;;;28.30;31.67;97182.22;5009632;28;20268;-71
2023/07/23 08:31:55;;;;;;;4.60;3.47;;;;;;;28.31;31.55;97179.28;5008070;28;20184;-72
2023/07/23 08:34:22;;;;;;;15.53;8.73;;;;;;;28.29;31.58;97173.34;5007948;28;20206;-71
2023/07/23 08:36:48;;;;;;;2.50;2.10;;;;;;;28.18;31.93;97185.19;5008514;28;20415;-71
2023/07/23 08:39:17;;;;;;;2.60;2.00;;;;;;;28.21;32.38;97176.59;5011068;28;20430;-71
2023/07/23 08:42:00;;;;;;;7.93;3.00;;;;;;;28.33;32.02;97171.75;5013963;28;20430;-70
2023/07/23 08:44:57;;;;;;;7.00;4.97;;;;;;;28.48;31.83;97168.25;5006272;28;20192;-70
2023/07/23 08:47:29;;;;;;;4.37;3.27;;;;;;;28.60;31.96;97170.69;4980410;28;20451;-70
2023/07/23 08:49:55;;;;;;;2.47;2.30;;;;;;;28.60;32.00;97165.28;4991159;28;20462;-71
2023/07/23 08:52:22;;;;;;;2.80;2.00;;;;;;;28.53;32.08;97170.13;5009231;28;20435;-71
2023/07/23 08:54:48;;;;;;;9.93;4.80;;;;;;;28.56;32.13;97174.16;5008091;28;20496;-70
2023/07/23 08:57:13;;;;;;;2.17;1.97;;;;;;;28.60;31.74;97177.94;5007012;28;20466;-70
2023/07/23 08:59:39;;;;;;;3.83;1.80;;;;;;;28.44;31.83;97177.13;5013181;28;20180;-70
2023/07/23 09:02:07;;;;;;;2.83;2.20;;;;;;;28.48;31.65;97170.94;5007259;28;20703;-69
2023/07/23 09:04:34;;;;;;;2.40;2.20;;;;;;;28.48;31.85;97167.44;5008533;28;20415;-71
2023/07/23 09:07:00;;;;;;;2.43;2.10;;;;;;;28.19;32.00;97170.66;5006881;28;20447;-70
2023/07/23 09:09:26;;;;;;;2.43;2.23;;;;;;;28.20;31.84;97169.59;5006149;28;20881;-71
2023/07/23 09:11:51;;;;;;;1.90;1.80;;;;;;;28.34;32.17;97161.78;5007428;28;20426;-72
2023/07/23 09:14:18;;;;;;;2.47;2.10;;;;;;;28.44;32.19;97166.38;5007165;28;20680;-72
2023/07/23 09:16:45;;;;;;;2.10;1.90;;;;;;;28.46;31.52;97180.38;4990054;28;20176;-71
2023/07/23 09:19:13;;;;;;;3.23;1.70;;;;;;;28.26;31.62;97162.31;5013656;28;20435;-70
2023/07/23 09:21:40;;;;;;;2.20;2.00;;;;;;;28.25;31.45;97166.88;5008440;28;20439;-71
2023/07/23 09:24:07;;;;;;;1.80;1.60;;;;;;;28.14;31.53;97165.25;5016095;28;20476;-69
2023/07/23 09:26:35;;;;;;;8.40;1.97;;;;;;;28.39;31.77;97152.88;5007362;28;20633;-71
2023/07/23 09:29:01;;;;;;;2.40;1.80;;;;;;;28.50;31.18;97155.31;5006652;28;20455;-71
2023/07/23 09:31:31;;;;;;;3.70;1.67;;;;;;;28.77;30.84;97148.03;5012384;28;20438;-71
2023/07/23 09:33:59;;;;;;;1.70;1.60;;;;;;;29.11;30.00;97163.63;5007079;28;20578;-70
2023/07/23 09:36:25;;;;;;;1.53;1.43;;;;;;;29.23;29.29;97157.91;5007364;28;20435;-71
2023/07/23 09:38:58;;;;;;;1.80;1.70;;;;;;;29.44;28.89;97172.16;5007886;28;20447;-70
2023/07/23 09:41:31;;;;;;;1.80;1.70;;;;;;;29.52;28.75;97160.78;5007443;28;20859;-71
2023/07/23 09:44:17;;;;;;;2.13;1.90;;;;;;;29.53;28.97;97164.31;5007410;28;20450;-70
2023/07/23 09:46:46;;;;;;;2.50;1.87;;;;;;;29.62;28.79;97159.13;5018742;28;20435;-72
2023/07/23 09:49:12;;;;;;;1.70;1.60;;;;;;;29.68;28.82;97155.31;5007085;28;20471;-71
2023/07/23 09:51:38;;;;;;;2.90;1.93;;;;;;;29.57;28.83;97149.97;4992858;28;20524;-71
2023/07/23 09:54:04;;;;;;;1.40;1.30;;;;;;;29.67;28.76;97151.00;5010423;28;20428;-70
2023/07/23 09:56:32;;;;;;;1.77;1.67;;;;;;;29.97;28.63;97141.16;5011097;28;20263;-72
2023/07/23 09:58:58;;;;;;;1.90;1.80;;;;;;;29.85;27.88;97154.97;4993574;28;20583;-70
2023/07/23 10:01:23;;;;;;;1.70;1.60;;;;;;;30.25;28.11;97150.41;5012265;28;20526;-71
2023/07/23 10:03:49;;;;;;;2.00;1.77;;;;;;;30.58;27.48;97147.22;5011260;28;20191;-70
2023/07/23 10:06:16;;;;;;;2.17;1.40;;;;;;;30.80;27.23;97141.31;5009531;28;20234;-69
2023/07/23 10:08:43;;;;;;;2.30;2.10;;;;;;;30.40;27.28;97137.88;5011329;28;20219;-70
2023/07/23 10:11:11;;;;;;;2.33;1.53;;;;;;;30.67;27.17;97140.09;5011324;28;20481;-71
2023/07/23 10:13:37;;;;;;;7.03;1.87;;;;;;;30.71;26.67;97148.44;5008819;28;20419;-71
2023/07/23 10:16:07;;;;;;;3.50;1.67;;;;;;;30.99;27.09;97133.28;5013293;28;20496;-69
2023/07/23 10:18:33;;;;;;;1.70;1.60;;;;;;;31.40;26.74;97149.06;5010505;28;20436;-70
2023/07/23 10:20:59;;;;;;;3.93;1.90;;;;;;;31.28;26.32;97132.44;5010247;28;20423;-70
2023/07/23 10:23:24;;;;;;;3.43;1.90;;;;;;;31.22;26.67;97139.00;5015011;28;20511;-71
2023/07/23 10:26:36;;;;;;;1.90;1.80;;;;;;;31.20;25.99;97131.16;5011349;28;20196;-70
2023/07/23 10:29:13;;;;;;;2.07;1.83;;;;;;;31.58;25.88;97130.44;5006916;28;20248;-70
2023/07/23 10:31:40;;;;;;;1.80;1.70;;;;;;;31.75;25.87;97121.84;5013069;28;20514;-70
2023/07/23 10:34:27;;;;;;;2.00;1.90;;;;;;;32.05;25.65;97113.56;5011550;28;20795;-71
2023/07/23 10:37:14;;;;;;;2.17;1.80;;;;;;;32.39;25.48;97112.47;5009211;28;20519;-70
2023/07/23 10:39:41;;;;;;;2.07;1.87;;;;;;;32.45;24.87;97111.31;5030250;28;20434;-70
2023/07/23 10:42:06;;;;;;;6.03;2.63;;;;;;;32.63;24.74;97107.75;5010145;28;20931;-69
2023/07/23 10:44:32;;;;;;;2.90;1.70;;;;;;;32.40;24.90;97103.25;5009842;28;20435;-70
2023/07/23 10:46:59;;;;;;;2.13;1.93;;;;;;;32.41;25.59;97102.16;5021548;28;20188;-71
2023/07/23 10:49:29;;;;;;;3.60;2.43;;;;;;;32.66;25.65;97094.66;5010483;28;20455;-71
2023/07/23 10:52:14;;;;;;;4.23;2.13;;;;;;;32.71;24.87;97098.09;5012356;28;20458;-72
2023/07/23 10:54:40;;;;;;;4.30;2.03;;;;;;;32.24;24.64;97105.38;5008469;28;20427;-71
2023/07/23 10:57:06;;;;;;;3.30;2.20;;;;;;;32.24;25.14;97110.81;5009718;28;20422;-71
2023/07/23 10:59:31;;;;;;;3.53;1.90;;;;;;;32.04;25.41;97112.75;4959794;28;20568;-71
2023/07/23 11:01:57;;;;;;;1.80;1.70;;;;;;;31.89;25.71;97116.47;5014302;28;20427;-70
2023/07/23 11:04:25;;;;;;;2.13;1.73;;;;;;;31.72;25.93;97103.47;5010210;28;20542;-71
2023/07/23 11:07:06;;;;;;;2.20;2.00;;;;;;;31.98;26.12;97092.25;5009798;28;20219;-71
2023/07/23 11:09:37;;;;;;;3.43;2.03;;;;;;;32.29;26.07;97092.59;5013920;28;20483;-71
2023/07/23 11:12:05;;;;;;;3.20;1.87;;;;;;;32.45;25.96;97078.78;5008618;28;20423;-71
2023/07/23 11:14:31;;;;;;;2.10;1.90;;;;;;;32.43;25.18;97103.47;5008417;28;20866;-71
2023/07/23 11:16:58;;;;;;;5.23;2.10;;;;;;;31.99;25.01;97094.69;5011017;28;20439;-70
2023/07/23 11:19:25;;;;;;;2.73;2.10;;;;;;;32.01;25.06;97097.09;5008907;28;20466;-73
2023/07/23 11:21:56;;;;;;;2.10;1.90;;;;;;;31.97;24.89;97088.75;5012079;28;20446;-71
2023/07/23 11:24:23;;;;;;;3.20;2.30;;;;;;;32.01;25.06;97084.31;5010472;28;20431;-70
2023/07/23 11:26:49;;;;;;;3.03;2.00;;;;;;;32.12;25.42;97076.06;5008472;28;20526;-71
2023/07/23 11:29:14;;;;;;;1.93;1.83;;;;;;;32.13;25.11;97086.59;5009465;28;20517;-72
2023/07/23 11:31:40;;;;;;;2.43;2.23;;;;;;;32.27;25.12;97064.97;5009280;28;20424;-71